createdAt,value
2023-05-06T00:00:55.782Z,6.33
2023-05-06T00:03:22.583Z,6.10
2023-05-06T00:05:49.603Z,6.17
2023-05-06T00:08:16.620Z,6.63
2023-05-06T00:10:43.233Z,6.40
2023-05-06T00:13:10.006Z,6.80
2023-05-06T00:15:36.843Z,7.77
2023-05-06T00:18:03.531Z,8.03
2023-05-06T00:20:31.129Z,6.63
2023-05-06T00:22:58.870Z,7.90
2023-05-06T00:25:25.814Z,7.80
2023-05-06T00:27:53.301Z,8.37
2023-05-06T00:30:19.914Z,9.33
2023-05-06T00:32:46.481Z,8.17
2023-05-06T00:35:13.123Z,8.13
2023-05-06T00:37:39.741Z,8.37
2023-05-06T00:40:07.174Z,7.60
2023-05-06T00:42:33.882Z,8.50
2023-05-06T00:45:00.513Z,7.70
2023-05-06T00:47:27.380Z,8.27
2023-05-06T00:49:54.341Z,9.63
2023-05-06T00:52:21.181Z,9.50
2023-05-06T00:54:47.896Z,8.47
2023-05-06T00:57:14.585Z,8.07
2023-05-06T00:59:42.102Z,9.60
2023-05-06T01:02:09.361Z,9.07
2023-05-06T01:04:36.372Z,10.43
2023-05-06T01:07:06.033Z,9.47
2023-05-06T01:09:53.387Z,11.57
2023-05-06T01:12:31.624Z,10.20
2023-05-06T01:15:11.490Z,12.23
2023-05-06T01:17:46.273Z,12.33
2023-05-06T01:20:15.047Z,12.40
2023-05-06T01:22:41.792Z,14.03
2023-05-06T01:25:17.223Z,13.03
2023-05-06T01:27:43.831Z,13.43
2023-05-06T01:30:11.220Z,13.47
2023-05-06T01:32:53.146Z,12.73
2023-05-06T01:35:33.733Z,11.20
2023-05-06T01:38:11.974Z,11.33
2023-05-06T01:40:41.262Z,10.87
2023-05-06T01:43:10.547Z,9.77
2023-05-06T01:45:39.316Z,10.50
2023-05-06T01:48:07.081Z,9.70
2023-05-06T01:50:34.774Z,9.73
2023-05-06T01:53:02.981Z,9.47
2023-05-06T01:55:29.569Z,9.03
2023-05-06T01:57:58.903Z,9.43
2023-05-06T02:00:26.588Z,10.17
2023-05-06T02:02:53.502Z,8.77
2023-05-06T02:05:20.613Z,8.43
2023-05-06T02:07:47.206Z,7.90
2023-05-06T02:10:13.795Z,7.73
2023-05-06T02:12:40.492Z,8.63
2023-05-06T02:15:07.883Z,8.40
2023-05-06T02:17:36.125Z,7.43
2023-05-06T02:20:02.851Z,7.87
2023-05-06T02:22:29.515Z,8.03
2023-05-06T02:24:56.086Z,8.00
2023-05-06T02:27:22.873Z,8.30
2023-05-06T02:29:49.463Z,9.10
2023-05-06T02:32:16.012Z,8.20
2023-05-06T02:34:42.547Z,7.90
2023-05-06T02:37:09.590Z,9.10
2023-05-06T02:39:36.130Z,8.20
2023-05-06T02:42:02.677Z,7.93
2023-05-06T02:44:29.287Z,7.47
2023-05-06T02:46:56.223Z,7.43
2023-05-06T02:49:22.806Z,7.50
2023-05-06T02:51:49.337Z,7.03
2023-05-06T02:54:15.899Z,8.53
2023-05-06T02:56:43.163Z,8.20
2023-05-06T02:59:09.859Z,7.63
2023-05-06T03:01:36.574Z,8.23
2023-05-06T03:04:03.564Z,8.07
2023-05-06T03:06:31.498Z,7.43
2023-05-06T03:08:58.161Z,7.77
2023-05-06T03:11:24.825Z,6.97
2023-05-06T03:13:51.389Z,8.53
2023-05-06T03:16:18.010Z,7.50
2023-05-06T03:18:44.727Z,7.67
2023-05-06T03:21:12.573Z,7.73
2023-05-06T03:23:39.258Z,7.50
2023-05-06T03:26:05.971Z,8.40
2023-05-06T03:28:32.641Z,8.67
2023-05-06T03:30:59.271Z,8.17
2023-05-06T03:33:26.027Z,8.10
2023-05-06T03:35:52.641Z,8.40
2023-05-06T03:38:19.200Z,8.33
2023-05-06T03:40:46.005Z,7.80
2023-05-06T03:43:12.653Z,7.93
2023-05-06T03:45:39.214Z,7.90
2023-05-06T03:48:06.269Z,7.30
2023-05-06T03:50:32.984Z,7.20
2023-05-06T03:52:59.653Z,6.77
2023-05-06T03:55:26.348Z,7.33
2023-05-06T03:57:52.914Z,7.30
2023-05-06T04:00:20.059Z,7.63
2023-05-06T04:02:46.667Z,6.80
2023-05-06T04:05:13.365Z,7.77
2023-05-06T04:07:39.939Z,7.83
2023-05-06T04:10:07.460Z,8.13
2023-05-06T04:12:34.383Z,7.20
2023-05-06T04:15:01.027Z,8.13
2023-05-06T04:17:27.694Z,7.30
2023-05-06T04:19:54.321Z,7.17
2023-05-06T04:22:21.161Z,7.03
2023-05-06T04:24:47.803Z,6.37
2023-05-06T04:27:15.152Z,6.10
2023-05-06T04:29:41.759Z,7.10
2023-05-06T04:32:10.132Z,6.10
2023-05-06T04:34:37.056Z,8.20
2023-05-06T04:37:03.647Z,7.23
2023-05-06T04:39:31.996Z,8.37
2023-05-06T04:41:58.579Z,8.97
2023-05-06T04:44:25.158Z,7.97
2023-05-06T04:46:51.735Z,9.30
2023-05-06T04:49:18.315Z,9.57
2023-05-06T04:51:44.883Z,7.57
2023-05-06T04:54:11.452Z,6.20
2023-05-06T04:56:38.289Z,7.40
2023-05-06T04:59:04.899Z,8.10
2023-05-06T05:01:31.521Z,9.40
2023-05-06T05:03:58.165Z,9.80
2023-05-06T05:06:24.814Z,7.63
2023-05-06T05:08:51.367Z,7.47
2023-05-06T05:11:17.954Z,8.70
2023-05-06T05:13:44.524Z,7.83
2023-05-06T05:16:11.152Z,9.90
2023-05-06T05:18:37.921Z,9.57
2023-05-06T05:21:04.748Z,8.37
2023-05-06T05:23:31.300Z,7.77
2023-05-06T05:25:57.949Z,9.00
2023-05-06T05:28:24.545Z,7.97
2023-05-06T05:30:51.128Z,9.40
2023-05-06T05:33:17.857Z,9.00
2023-05-06T05:35:44.616Z,7.90
2023-05-06T05:38:13.827Z,10.10
2023-05-06T05:40:40.624Z,9.27
2023-05-06T05:43:07.265Z,8.23
2023-05-06T05:45:34.192Z,7.97
2023-05-06T05:48:00.806Z,10.20
2023-05-06T05:50:27.425Z,8.90
2023-05-06T05:52:54.025Z,8.00
2023-05-06T05:55:21.461Z,8.63
2023-05-06T05:57:48.096Z,8.93
2023-05-06T06:00:15.100Z,8.10
2023-05-06T06:02:41.731Z,7.97
2023-05-06T06:05:08.975Z,8.77
2023-05-06T06:07:35.737Z,8.57
2023-05-06T06:10:02.290Z,8.77
2023-05-06T06:12:28.974Z,7.53
2023-05-06T06:14:55.623Z,8.00
2023-05-06T06:17:22.277Z,8.40
2023-05-06T06:19:50.614Z,8.87
2023-05-06T06:22:17.201Z,9.03
2023-05-06T06:24:43.996Z,8.80
2023-05-06T06:27:10.617Z,9.33
2023-05-06T06:29:37.190Z,9.00
2023-05-06T06:32:04.169Z,9.17
2023-05-06T06:34:30.855Z,9.70
2023-05-06T06:36:57.447Z,9.10
2023-05-06T06:39:24.054Z,8.87
2023-05-06T06:41:50.679Z,9.63
2023-05-06T06:44:17.232Z,10.87
2023-05-06T06:46:43.925Z,10.17
2023-05-06T06:49:10.715Z,10.40
2023-05-06T06:51:37.263Z,10.17
2023-05-06T06:54:03.816Z,10.57
2023-05-06T06:56:31.696Z,9.77
2023-05-06T06:58:58.293Z,9.60
2023-05-06T07:01:24.960Z,14.90
2023-05-06T07:03:51.578Z,11.17
2023-05-06T07:06:18.162Z,10.50
2023-05-06T07:08:44.719Z,10.43
2023-05-06T07:11:12.143Z,10.00
2023-05-06T07:13:38.737Z,10.00
2023-05-06T07:16:05.467Z,10.73
2023-05-06T07:18:32.073Z,10.47
2023-05-06T07:20:58.719Z,10.73
2023-05-06T07:23:25.410Z,11.40
2023-05-06T07:25:51.983Z,11.33
2023-05-06T07:28:18.597Z,13.50
2023-05-06T07:30:45.463Z,14.50
2023-05-06T07:33:12.184Z,14.73
2023-05-06T07:35:38.768Z,16.00
2023-05-06T07:38:05.319Z,15.80
2023-05-06T07:40:32.022Z,15.13
2023-05-06T07:42:58.575Z,14.77
2023-05-06T07:45:25.232Z,12.27
2023-05-06T07:47:52.117Z,10.33
2023-05-06T07:50:18.871Z,9.13
2023-05-06T07:52:45.574Z,9.37
2023-05-06T07:55:12.453Z,8.33
2023-05-06T07:57:39.250Z,8.50
2023-05-06T08:00:06.661Z,8.23
2023-05-06T08:02:33.360Z,8.50
2023-05-06T08:05:00.186Z,8.13
2023-05-06T08:07:26.752Z,7.87
2023-05-06T08:09:53.381Z,8.20
2023-05-06T08:12:20.182Z,9.27
2023-05-06T08:14:46.813Z,9.30
2023-05-06T08:17:13.699Z,8.40
2023-05-06T08:19:40.356Z,8.27
2023-05-06T08:22:06.956Z,9.00
2023-05-06T08:24:33.764Z,8.43
2023-05-06T08:27:00.339Z,9.30
2023-05-06T08:29:26.963Z,8.90
2023-05-06T08:31:53.622Z,8.33
2023-05-06T08:34:21.204Z,8.83
2023-05-06T08:36:48.866Z,8.97
2023-05-06T08:39:15.534Z,8.53
2023-05-06T08:41:47.679Z,8.90
2023-05-06T08:44:18.511Z,8.90
2023-05-06T08:46:46.827Z,8.33
2023-05-06T08:49:13.875Z,8.50
2023-05-06T08:51:43.617Z,8.97
2023-05-06T08:54:12.054Z,9.00
2023-05-06T08:56:43.101Z,9.63
2023-05-06T08:59:09.826Z,9.07
2023-05-06T09:01:36.992Z,8.77
2023-05-06T09:04:04.074Z,9.27
2023-05-06T09:06:30.691Z,8.33
2023-05-06T09:08:57.646Z,9.00
2023-05-06T09:11:26.612Z,8.73
2023-05-06T09:14:10.906Z,9.57
2023-05-06T09:16:39.104Z,8.97
2023-05-06T09:19:06.117Z,8.73
2023-05-06T09:21:37.794Z,8.73
2023-05-06T09:24:06.178Z,8.50
2023-05-06T09:26:34.141Z,8.97
2023-05-06T09:29:01.228Z,9.13
2023-05-06T09:31:28.978Z,8.80
2023-05-06T09:33:58.217Z,8.57
2023-05-06T09:36:27.260Z,8.23
2023-05-06T09:38:57.704Z,7.90
2023-05-06T09:41:25.496Z,7.93
2023-05-06T09:43:56.598Z,8.87
2023-05-06T09:46:24.501Z,7.93
2023-05-06T09:48:52.664Z,8.00
2023-05-06T09:51:20.189Z,7.97
2023-05-06T09:53:47.448Z,8.03
2023-05-06T09:56:15.682Z,7.93
2023-05-06T09:58:43.049Z,6.97
2023-05-06T10:01:13.291Z,7.20
2023-05-06T10:03:43.657Z,8.27
2023-05-06T10:06:11.811Z,7.53
2023-05-06T10:08:40.763Z,7.07
2023-05-06T10:11:07.552Z,7.33
2023-05-06T10:13:36.759Z,6.57
2023-05-06T10:16:04.967Z,7.17
2023-05-06T10:18:34.868Z,7.33
2023-05-06T10:21:03.920Z,6.63
2023-05-06T10:23:37.800Z,6.95
2023-05-06T10:26:07.674Z,5.78
2023-05-06T10:28:40.978Z,6.50
2023-05-06T10:31:12.408Z,6.47
2023-05-06T10:33:47.199Z,6.18
2023-05-06T10:36:25.817Z,6.47
2023-05-06T10:38:56.312Z,7.20
2023-05-06T10:41:27.632Z,7.15
2023-05-06T10:43:59.326Z,6.57
2023-05-06T10:46:27.903Z,6.70
2023-05-06T10:49:06.547Z,5.95
2023-05-06T10:51:33.903Z,6.20
2023-05-06T10:54:07.134Z,6.00
2023-05-06T10:57:02.851Z,6.35
2023-05-06T10:59:30.866Z,5.63
2023-05-06T11:02:04.408Z,5.78
2023-05-06T11:04:31.600Z,5.55
2023-05-06T11:07:12.527Z,5.80
2023-05-06T11:09:56.767Z,5.35
2023-05-06T11:12:46.227Z,5.40
2023-05-06T11:15:46.288Z,5.50
2023-05-06T11:18:26.305Z,5.60
2023-05-06T11:21:04.896Z,5.43
2023-05-06T11:23:47.135Z,5.38
2023-05-06T11:26:14.159Z,5.47
2023-05-06T11:28:43.860Z,5.43
2023-05-06T11:31:12.413Z,5.00
2023-05-06T11:33:46.243Z,5.63
2023-05-06T11:36:21.172Z,5.45
2023-05-06T11:38:59.470Z,5.05
2023-05-06T11:41:26.096Z,4.93
2023-05-06T11:43:53.707Z,5.20
2023-05-06T11:46:22.057Z,5.53
2023-05-06T11:48:49.337Z,5.10
2023-05-06T11:51:16.231Z,5.28
2023-05-06T11:53:42.857Z,4.90
2023-05-06T11:56:09.488Z,5.28
2023-05-06T11:58:36.074Z,5.35
2023-05-06T12:01:04.275Z,5.90
2023-05-06T12:03:32.785Z,5.43
2023-05-06T12:05:59.755Z,5.07
2023-05-06T12:08:32.136Z,5.20
2023-05-06T12:11:01.898Z,4.53
2023-05-06T12:13:29.198Z,4.57
2023-05-06T12:15:58.182Z,4.10
2023-05-06T12:18:25.956Z,5.33
2023-05-06T12:20:56.417Z,4.93
2023-05-06T12:23:23.357Z,4.70
2023-05-06T12:26:08.253Z,4.43
2023-05-06T12:28:36.749Z,4.20
2023-05-06T12:31:39.127Z,4.50
2023-05-06T12:34:06.206Z,5.45
2023-05-06T12:36:33.112Z,4.80
2023-05-06T12:39:01.450Z,5.18
2023-05-06T12:41:47.758Z,5.20
2023-05-06T12:44:52.616Z,5.68
2023-05-06T12:47:21.611Z,5.43
2023-05-06T12:49:55.837Z,5.50
2023-05-06T12:52:24.491Z,5.20
2023-05-06T12:54:52.468Z,5.25
2023-05-06T12:57:20.069Z,4.80
2023-05-06T12:59:46.716Z,4.40
2023-05-06T13:02:13.944Z,4.40
2023-05-06T13:04:40.904Z,5.18
2023-05-06T13:07:07.652Z,4.43
2023-05-06T13:09:34.335Z,4.75
2023-05-06T13:12:02.259Z,4.13
2023-05-06T13:14:28.838Z,4.10
2023-05-06T13:16:55.891Z,4.22
2023-05-06T13:19:32.187Z,4.15
2023-05-06T13:22:00.729Z,4.03
2023-05-06T13:24:27.692Z,4.20
2023-05-06T13:26:55.974Z,4.13
2023-05-06T13:29:23.454Z,3.85
2023-05-06T13:31:50.148Z,3.20
2023-05-06T13:34:16.713Z,3.30
2023-05-06T13:36:43.792Z,3.58
2023-05-06T13:39:10.456Z,3.40
2023-05-06T13:41:37.107Z,3.30
2023-05-06T13:44:03.777Z,4.07
2023-05-06T13:46:30.933Z,3.67
2023-05-06T13:48:57.569Z,3.70
2023-05-06T13:51:27.373Z,3.53
2023-05-06T13:53:53.938Z,3.55
2023-05-06T13:56:21.404Z,3.83
2023-05-06T13:58:47.980Z,3.47
2023-05-06T14:01:14.970Z,3.90
2023-05-06T14:03:41.820Z,3.85
2023-05-06T14:06:08.732Z,3.60
2023-05-06T14:08:35.387Z,3.70
2023-05-06T14:11:02.135Z,3.63
2023-05-06T14:13:31.316Z,4.10
2023-05-06T14:15:58.316Z,3.80
2023-05-06T14:18:26.835Z,3.83
2023-05-06T14:20:53.884Z,3.70
2023-05-06T14:23:20.692Z,3.80
2023-05-06T14:25:47.294Z,4.03
2023-05-06T14:28:15.426Z,3.70
2023-05-06T14:30:42.920Z,4.07
2023-05-06T14:33:10.081Z,3.70
2023-05-06T14:35:41.302Z,3.33
2023-05-06T14:38:08.249Z,3.70
2023-05-06T14:40:36.746Z,3.90
2023-05-06T14:43:04.024Z,3.87
2023-05-06T14:45:30.970Z,4.90
2023-05-06T14:47:57.875Z,4.10
2023-05-06T14:50:24.554Z,3.70
2023-05-06T14:52:51.334Z,3.60
2023-05-06T14:55:18.098Z,4.10
2023-05-06T14:57:44.649Z,3.40
2023-05-06T15:00:14.552Z,3.50
2023-05-06T15:02:41.978Z,3.53
2023-05-06T15:05:09.963Z,3.50
2023-05-06T15:07:36.935Z,3.87
2023-05-06T15:10:04.204Z,3.80
2023-05-06T15:12:30.950Z,3.73
2023-05-06T15:14:57.561Z,3.60
2023-05-06T15:17:24.775Z,3.30
2023-05-06T15:19:51.550Z,3.13
2023-05-06T15:22:18.273Z,3.57
2023-05-06T15:24:45.230Z,3.50
2023-05-06T15:27:11.834Z,3.43
2023-05-06T15:29:39.700Z,3.23
2023-05-06T15:32:07.084Z,3.53
2023-05-06T15:34:33.785Z,3.60
2023-05-06T15:37:03.431Z,3.57
2023-05-06T15:39:38.491Z,3.20
2023-05-06T15:42:05.351Z,3.57
2023-05-06T15:44:33.480Z,3.10
2023-05-06T15:47:00.173Z,2.90
2023-05-06T15:49:51.090Z,3.63
2023-05-06T15:52:13.361Z,3.10
2023-05-06T15:54:40.984Z,3.20
2023-05-06T15:57:07.970Z,3.47
2023-05-06T15:59:34.611Z,3.17
2023-05-06T16:02:26.330Z,3.63
2023-05-06T16:04:47.851Z,3.30
2023-05-06T16:07:15.501Z,3.50
2023-05-06T16:09:42.781Z,3.43
2023-05-06T16:12:09.955Z,4.10
2023-05-06T16:14:36.576Z,4.30
2023-05-06T16:17:03.384Z,3.87
2023-05-06T16:19:32.182Z,3.77
2023-05-06T16:21:58.771Z,3.97
2023-05-06T16:24:25.440Z,3.60
2023-05-06T16:26:52.172Z,3.30
2023-05-06T16:29:20.528Z,3.47
2023-05-06T16:31:51.011Z,3.37
2023-05-06T16:34:17.677Z,4.13
2023-05-06T16:36:44.488Z,4.07
2023-05-06T16:39:11.170Z,3.47
2023-05-06T16:41:37.813Z,3.90
2023-05-06T16:44:04.636Z,3.50
2023-05-06T16:46:31.297Z,3.70
2023-05-06T16:48:57.904Z,3.60
2023-05-06T16:51:24.648Z,3.83
2023-05-06T16:53:51.273Z,4.17
2023-05-06T16:56:17.848Z,4.82
2023-05-06T16:58:44.395Z,4.20
2023-05-06T17:01:11.760Z,4.57
2023-05-06T17:03:38.637Z,4.40
2023-05-06T17:06:05.579Z,4.90
2023-05-06T17:08:36.127Z,4.73
2023-05-06T17:11:05.941Z,4.60
2023-05-06T17:13:32.747Z,4.73
2023-05-06T17:15:59.455Z,4.33
2023-05-06T17:18:26.058Z,4.00
2023-05-06T17:20:56.608Z,5.00
2023-05-06T17:23:24.326Z,5.23
2023-05-06T17:25:51.224Z,4.60
2023-05-06T17:28:18.813Z,6.47
2023-05-06T17:30:45.904Z,5.30
2023-05-06T17:33:12.892Z,4.47
2023-05-06T17:35:39.636Z,4.80
2023-05-06T17:38:06.317Z,4.57
2023-05-06T17:40:39.418Z,5.30
2023-05-06T17:43:07.236Z,5.37
2023-05-06T17:45:33.798Z,5.27
2023-05-06T17:48:00.496Z,5.23
2023-05-06T17:50:27.134Z,5.53
2023-05-06T17:52:54.461Z,4.97
2023-05-06T17:55:21.864Z,5.40
2023-05-06T17:57:49.019Z,5.40
2023-05-06T18:00:16.835Z,5.73
2023-05-06T18:02:44.120Z,5.90
2023-05-06T18:05:11.423Z,5.53
2023-05-06T18:07:38.369Z,5.33
2023-05-06T18:10:05.734Z,6.53
2023-05-06T18:12:32.345Z,5.73
2023-05-06T18:14:59.001Z,6.53
2023-05-06T18:17:25.631Z,5.60
2023-05-06T18:19:52.681Z,5.33
2023-05-06T18:22:19.292Z,6.03
2023-05-06T18:24:45.852Z,5.63
2023-05-06T18:27:12.908Z,6.20
2023-05-06T18:29:41.114Z,5.57
2023-05-06T18:32:08.015Z,5.40
2023-05-06T18:34:34.821Z,5.10
2023-05-06T18:37:01.564Z,5.77
2023-05-06T18:39:28.109Z,5.80
2023-05-06T18:41:54.683Z,6.13
2023-05-06T18:44:21.284Z,5.67
2023-05-06T18:46:47.887Z,5.30
2023-05-06T18:49:14.563Z,6.07
2023-05-06T18:51:41.243Z,5.90
2023-05-06T18:54:08.148Z,5.53
2023-05-06T18:56:36.387Z,5.90
2023-05-06T18:59:03.006Z,6.13
2023-05-06T19:01:29.754Z,6.50
2023-05-06T19:03:56.789Z,6.17
2023-05-06T19:06:23.447Z,6.20
2023-05-06T19:08:50.418Z,6.93
2023-05-06T19:11:21.046Z,6.10
2023-05-06T19:13:47.745Z,5.77
2023-05-06T19:16:14.550Z,5.80
2023-05-06T19:18:41.325Z,5.90
2023-05-06T19:21:12.332Z,6.47
2023-05-06T19:23:39.245Z,6.17
2023-05-06T19:26:07.038Z,6.10
2023-05-06T19:28:34.446Z,7.03
2023-05-06T19:31:01.308Z,6.47
2023-05-06T19:33:28.221Z,6.30
2023-05-06T19:35:54.860Z,7.00
2023-05-06T19:38:21.545Z,6.63
2023-05-06T19:40:48.142Z,7.07
2023-05-06T19:43:14.790Z,6.90
2023-05-06T19:45:41.842Z,7.00
2023-05-06T19:48:08.624Z,7.17
2023-05-06T19:50:35.406Z,6.43
2023-05-06T19:53:02.004Z,7.40
2023-05-06T19:55:28.593Z,7.07
2023-05-06T19:57:58.682Z,6.17
2023-05-06T20:00:27.942Z,7.40
2023-05-06T20:02:56.642Z,7.47
2023-05-06T20:05:23.778Z,7.10
2023-05-06T20:07:51.165Z,5.50
2023-05-06T20:10:17.770Z,6.33
2023-05-06T20:12:44.383Z,7.00
2023-05-06T20:15:11.544Z,6.50
2023-05-06T20:17:38.536Z,6.23
2023-05-06T20:20:09.618Z,6.57
2023-05-06T20:22:37.757Z,5.90
2023-05-06T20:25:23.043Z,6.77
2023-05-06T20:27:49.625Z,5.43
2023-05-06T20:30:16.212Z,5.90
2023-05-06T20:32:42.965Z,6.20
2023-05-06T20:35:10.007Z,6.30
2023-05-06T20:37:36.847Z,6.17
2023-05-06T20:40:06.500Z,6.07
2023-05-06T20:42:36.708Z,6.00
2023-05-06T20:45:04.347Z,5.93
2023-05-06T20:47:31.063Z,6.07
2023-05-06T20:49:58.056Z,6.57
2023-05-06T20:52:25.104Z,6.37
2023-05-06T20:54:51.663Z,5.93
2023-05-06T20:57:18.920Z,6.43
2023-05-06T20:59:46.033Z,6.80
2023-05-06T21:02:12.613Z,6.30
2023-05-06T21:04:39.648Z,5.97
2023-05-06T21:07:06.292Z,7.57
2023-05-06T21:09:32.835Z,6.87
2023-05-06T21:11:59.447Z,6.47
2023-05-06T21:14:26.674Z,6.80
2023-05-06T21:16:53.728Z,6.97
2023-05-06T21:19:20.708Z,7.57
2023-05-06T21:21:47.486Z,7.13
2023-05-06T21:24:14.085Z,7.33
2023-05-06T21:26:40.722Z,7.37
2023-05-06T21:29:07.433Z,6.87
2023-05-06T21:31:34.230Z,6.93
2023-05-06T21:34:01.248Z,7.10
2023-05-06T21:36:27.898Z,7.10
2023-05-06T21:39:08.640Z,7.17
2023-05-06T21:41:35.912Z,7.47
2023-05-06T21:44:07.847Z,7.80
2023-05-06T21:46:34.865Z,6.63
2023-05-06T21:49:01.556Z,6.80
2023-05-06T21:51:32.192Z,6.93
2023-05-06T21:53:58.820Z,6.97
2023-05-06T21:56:25.478Z,6.13
2023-05-06T21:58:55.560Z,6.80
2023-05-06T22:01:25.893Z,6.47
2023-05-06T22:03:53.731Z,7.27
2023-05-06T22:06:20.662Z,6.90
2023-05-06T22:08:47.248Z,6.20
2023-05-06T22:11:13.864Z,6.20
2023-05-06T22:13:40.659Z,6.33
2023-05-06T22:16:07.997Z,5.83
2023-05-06T22:18:35.901Z,6.67
2023-05-06T22:21:03.117Z,6.40
2023-05-06T22:23:29.812Z,6.63
2023-05-06T22:25:57.843Z,6.33
2023-05-06T22:28:25.245Z,6.83
2023-05-06T22:30:51.860Z,6.87
2023-05-06T22:33:18.453Z,6.57
2023-05-06T22:35:45.243Z,6.13
2023-05-06T22:38:11.845Z,6.60
2023-05-06T22:40:38.399Z,6.70
2023-05-06T22:43:04.995Z,6.80
2023-05-06T22:45:31.774Z,6.77
2023-05-06T22:47:58.549Z,6.33
2023-05-06T22:50:25.339Z,6.10
2023-05-06T22:52:52.021Z,6.30
2023-05-06T22:55:18.749Z,7.20
2023-05-06T22:57:46.988Z,7.30
2023-05-06T23:00:13.782Z,6.63
2023-05-06T23:02:40.554Z,6.43
2023-05-06T23:05:07.538Z,6.60
2023-05-06T23:07:34.216Z,6.50
2023-05-06T23:10:01.124Z,6.67
2023-05-06T23:12:32.824Z,6.77
2023-05-06T23:15:00.121Z,6.50
2023-05-06T23:17:26.877Z,6.10
2023-05-06T23:19:53.524Z,6.73
2023-05-06T23:22:20.082Z,7.10
2023-05-06T23:24:46.725Z,7.00
2023-05-06T23:27:13.293Z,6.63
2023-05-06T23:29:39.948Z,6.93
2023-05-06T23:32:06.953Z,7.10
2023-05-06T23:34:33.690Z,6.67
2023-05-06T23:37:00.356Z,6.80
2023-05-06T23:39:26.938Z,6.93
2023-05-06T23:41:53.548Z,6.63
2023-05-06T23:44:20.358Z,7.50
2023-05-06T23:46:46.960Z,6.83
2023-05-06T23:49:13.575Z,6.57
2023-05-06T23:51:40.260Z,7.33
2023-05-06T23:54:06.837Z,6.30
2023-05-06T23:56:33.388Z,7.30
2023-05-06T23:59:00.047Z,7.17
